Time;durP1;ratioP1;P1;durP2;ratioP2;P2;SDS_P1;SDS_P2;PMS_P1;PMS_P2;Temp;Humidity;BMP_temperature;BMP_pressure;BME280_temperature;BME280_humidity;BME280_pressure;Samples;Min_cycle;Max_cycle;Signal;HPM_P1;HPM_P2
2022/05/26 00:00:13;;;;;;;13.45;7.72;;;18.20;99.90;;;;;;5114535;28;20035;-58
2022/05/26 00:02:39;;;;;;;14.45;7.13;;;18.20;99.90;;;;;;5118074;28;20501;-58
2022/05/26 00:05:06;;;;;;;14.55;6.72;;;18.20;99.90;;;;;;5118685;28;20031;-58
2022/05/26 00:07:32;;;;;;;15.38;7.28;;;18.10;99.90;;;;;;5118585;28;20030;-58
2022/05/26 00:09:58;;;;;;;17.95;7.90;;;18.10;99.90;;;;;;5118392;28;20032;-58
2022/05/26 00:12:24;;;;;;;14.05;7.63;;;18.10;99.90;;;;;;5118348;28;20076;-58
2022/05/26 00:14:50;;;;;;;14.40;7.43;;;18.00;99.90;;;;;;5118568;28;20123;-58
2022/05/26 00:17:16;;;;;;;13.93;7.88;;;18.00;99.90;;;;;;5118393;28;20110;-58
2022/05/26 00:19:42;;;;;;;12.57;7.78;;;18.00;99.90;;;;;;5118198;28;20038;-58
2022/05/26 00:22:08;;;;;;;12.27;7.32;;;18.00;99.90;;;;;;5100289;28;20051;-58
2022/05/26 00:24:34;;;;;;;10.98;7.45;;;17.90;99.90;;;;;;5097528;28;20472;-58
2022/05/26 00:27:00;;;;;;;13.35;8.07;;;17.90;99.90;;;;;;5098627;28;20108;-58
2022/05/26 00:29:26;;;;;;;13.00;7.60;;;17.80;99.90;;;;;;5118051;28;20473;-58
2022/05/26 00:31:52;;;;;;;13.25;7.65;;;17.80;99.90;;;;;;5118025;28;20385;-58
2022/05/26 00:34:18;;;;;;;12.43;7.75;;;17.90;99.90;;;;;;5118227;28;20034;-58
2022/05/26 00:36:44;;;;;;;12.52;7.38;;;17.80;99.90;;;;;;5117870;28;20032;-59
2022/05/26 00:39:24;;;;;;;10.93;7.30;;;17.80;99.90;;;;;;5117963;28;20106;-58
2022/05/26 00:41:54;;;;;;;11.45;6.93;;;17.80;99.90;;;;;;5117857;28;20494;-58
2022/05/26 00:44:20;;;;;;;17.85;7.47;;;17.80;99.90;;;;;;5118128;28;20074;-58
2022/05/26 00:47:18;;;;;;;14.60;7.50;;;17.80;99.90;;;;;;5117570;28;20043;-58
2022/05/26 00:49:47;;;;;;;10.88;7.70;;;17.80;99.90;;;;;;5117612;28;20500;-58
2022/05/26 00:52:20;;;;;;;10.13;7.28;;;17.70;99.90;;;;;;5117835;28;20055;-58
2022/05/26 00:54:48;;;;;;;14.20;8.32;;;17.80;99.90;;;;;;5117854;28;20110;-58
2022/05/26 00:57:16;;;;;;;12.20;7.60;;;17.90;99.90;;;;;;5117799;28;20023;-58
2022/05/26 00:59:42;;;;;;;13.20;7.22;;;17.90;99.90;;;;;;5117441;28;20027;-58
2022/05/26 01:02:08;;;;;;;12.48;7.68;;;17.90;99.90;;;;;;5117576;28;20023;-58
2022/05/26 01:04:47;;;;;;;13.23;6.22;;;18.00;99.90;;;;;;5117308;28;20043;-58
2022/05/26 01:07:29;;;;;;;12.63;6.28;;;18.00;99.90;;;;;;5117358;28;20028;-58
2022/05/26 01:09:56;;;;;;;11.40;7.00;;;18.00;99.90;;;;;;5117592;28;20477;-58
2022/05/26 01:12:22;;;;;;;13.73;6.68;;;18.00;99.90;;;;;;5116479;28;20024;-58
2022/05/26 01:14:53;;;;;;;10.43;6.18;;;17.90;99.90;;;;;;5117153;28;20032;-58
2022/05/26 01:18:00;;;;;;;12.50;6.60;;;18.00;99.90;;;;;;5117418;28;20126;-58
2022/05/26 01:20:43;;;;;;;11.05;5.95;;;18.10;99.90;;;;;;5113270;28;20015;-58
2022/05/26 01:23:57;;;;;;;10.05;6.13;;;18.10;99.90;;;;;;5096815;28;20031;-58
2022/05/26 01:26:43;;;;;;;10.05;5.95;;;18.20;99.90;;;;;;5078973;28;20032;-59
2022/05/26 01:29:37;;;;;;;8.63;5.47;;;18.20;99.90;;;;;;5115137;28;20028;-59
2022/05/26 01:32:21;;;;;;;12.30;5.78;;;18.20;99.90;;;;;;5117216;28;20024;-58
2022/05/26 01:35:06;;;;;;;9.93;5.03;;;18.20;99.90;;;;;;5116907;28;20477;-58
2022/05/26 01:37:51;;;;;;;7.95;4.82;;;18.20;99.90;;;;;;5116372;28;20097;-58
2022/05/26 01:40:39;;;;;;;6.88;4.70;;;18.30;99.90;;;;;;5116734;28;20568;-58
2022/05/26 01:43:41;;;;;;;8.45;5.03;;;18.40;99.90;;;;;;5116546;28;20066;-58
2022/05/26 01:46:18;;;;;;;7.50;5.00;;;18.30;99.90;;;;;;5117103;28;20152;-58
2022/05/26 01:49:14;;;;;;;9.95;5.70;;;18.30;99.90;;;;;;5116571;28;20023;-58
2022/05/26 01:52:09;;;;;;;7.10;4.45;;;18.30;99.90;;;;;;5116511;28;20157;-58
2022/05/26 01:54:50;;;;;;;8.93;5.20;;;18.30;99.90;;;;;;5116740;28;20016;-58
2022/05/26 01:57:24;;;;;;;8.48;4.32;;;18.40;99.90;;;;;;5116573;28;20034;-58
2022/05/26 01:59:55;;;;;;;8.88;4.32;;;18.40;99.90;;;;;;5098250;28;20024;-58
2022/05/26 02:02:29;;;;;;;19.08;11.45;;;18.40;99.90;;;;;;5116427;28;20058;-58
2022/05/26 02:05:01;;;;;;;21.55;10.93;;;18.40;99.90;;;;;;5115982;28;20093;-58
2022/05/26 02:07:43;;;;;;;37.20;18.95;;;18.40;99.90;;;;;;5116275;28;20028;-58
2022/05/26 02:10:36;;;;;;;45.97;23.08;;;18.40;99.90;;;;;;5116252;28;20507;-58
2022/05/26 02:13:11;;;;;;;37.67;19.17;;;18.40;99.90;;;;;;5116173;28;20031;-58
2022/05/26 02:15:44;;;;;;;27.25;14.75;;;18.40;99.90;;;;;;5116066;28;20027;-58
2022/05/26 02:18:27;;;;;;;20.05;10.43;;;18.40;99.90;;;;;;5116209;28;20027;-58
2022/05/26 02:21:03;;;;;;;13.48;6.18;;;18.50;99.90;;;;;;5109081;28;20063;-58
2022/05/26 02:23:49;;;;;;;8.80;4.18;;;18.50;99.90;;;;;;5095317;28;20031;-58
2022/05/26 02:26:15;;;;;;;8.65;4.03;;;18.50;99.90;;;;;;5095537;28;20044;-58
2022/05/26 02:31:29;;;;;;;8.77;2.70;;;18.60;99.90;;;;;;5115629;28;20028;-58
2022/05/26 02:34:01;;;;;;;6.18;3.38;;;18.60;99.90;;;;;;5115775;28;20467;-58
2022/05/26 02:36:33;;;;;;;3.55;2.83;;;18.60;99.90;;;;;;5115399;28;20032;-58
2022/05/26 02:38:59;;;;;;;5.05;3.03;;;18.60;99.90;;;;;;5114581;27;20797;-58
2022/05/26 02:41:26;;;;;;;5.95;2.70;;;18.60;99.90;;;;;;5132734;27;20066;-59
2022/05/26 02:43:54;;;;;;;5.80;3.00;;;18.60;99.90;;;;;;5130776;27;20092;-58
2022/05/26 02:46:52;;;;;;;14.82;2.90;;;18.60;99.90;;;;;;5111343;27;20062;-59
2022/05/26 02:49:33;;;;;;;3.25;2.30;;;18.60;99.90;;;;;;5043618;28;20032;-59
2022/05/26 02:52:24;;;;;;;12.23;3.17;;;18.60;99.90;;;;;;5091750;28;20047;-58
2022/05/26 02:55:09;;;;;;;3.47;2.47;;;18.50;99.90;;;;;;5109343;28;20039;-58
2022/05/26 02:58:01;;;;;;;4.70;2.80;;;18.50;99.90;;;;;;5106064;27;20039;-58
2022/05/26 03:00:48;;;;;;;8.00;2.45;;;18.50;99.90;;;;;;5111593;27;20100;-58
2022/05/26 03:03:37;;;;;;;3.50;2.22;;;18.50;99.90;;;;;;5038706;27;1256964;-58
2022/05/26 03:06:07;;;;;;;5.80;2.53;;;18.50;99.90;;;;;;5119840;27;20035;-59
2022/05/26 03:08:39;;;;;;;2.97;1.80;;;18.50;99.90;;;;;;5111289;27;20044;-58
2022/05/26 03:11:09;;;;;;;2.42;1.60;;;18.50;99.90;;;;;;5105575;28;20408;-58
2022/05/26 03:13:36;;;;;;;4.38;2.10;;;18.50;99.90;;;;;;5066007;28;20060;-58
2022/05/26 03:16:03;;;;;;;2.63;1.77;;;18.40;99.90;;;;;;5112576;27;20097;-59
2022/05/26 03:18:30;;;;;;;7.60;1.52;;;18.40;99.90;;;;;;5109712;28;20077;-59
2022/05/26 03:21:04;;;;;;;6.28;1.85;;;18.40;99.90;;;;;;5079317;28;20126;-59
2022/05/26 03:23:30;;;;;;;4.95;1.98;;;18.40;99.90;;;;;;5041121;28;20041;-58
2022/05/26 03:25:58;;;;;;;6.32;1.50;;;18.50;99.90;;;;;;5025011;28;20044;-58
2022/05/26 03:28:25;;;;;;;2.03;1.35;;;18.40;99.90;;;;;;5087024;28;20450;-59
2022/05/26 03:30:52;;;;;;;3.08;1.75;;;18.40;99.90;;;;;;5115385;27;20043;-59
2022/05/26 03:33:18;;;;;;;5.18;1.75;;;18.40;99.90;;;;;;5112467;27;20047;-59
2022/05/26 03:41:17;;;;;;;3.05;1.75;;;18.40;99.90;;;;;;5107564;28;20051;-59
2022/05/26 03:43:52;;;;;;;4.68;1.65;;;18.50;99.90;;;;;;5108517;28;20059;-59
2022/05/26 03:46:18;;;;;;;1.55;1.45;;;18.50;99.90;;;;;;5102762;28;20096;-58
2022/05/26 03:48:44;;;;;;;3.55;2.00;;;18.60;99.90;;;;;;5089127;28;20056;-59
2022/05/26 03:51:10;;;;;;;3.92;2.15;;;18.60;99.90;;;;;;5072577;28;20059;-59
2022/05/26 03:53:36;;;;;;;7.43;2.05;;;18.50;99.90;;;;;;4998405;28;20047;-59
2022/05/26 03:56:04;;;;;;;5.32;2.42;;;18.60;99.90;;;;;;5085935;28;20079;-59
2022/05/26 03:58:32;;;;;;;11.85;2.70;;;18.60;99.90;;;;;;5099833;28;20043;-59
2022/05/26 04:01:05;;;;;;;6.10;2.25;;;18.60;99.90;;;;;;5096013;28;20039;-58
2022/05/26 04:03:32;;;;;;;21.77;4.30;;;18.60;99.90;;;;;;5075441;28;20055;-58
2022/05/26 04:05:58;;;;;;;18.80;3.38;;;18.60;99.90;;;;;;5093607;28;20111;-58
2022/05/26 04:08:24;;;;;;;30.17;4.80;;;18.60;99.90;;;;;;5095301;28;20101;-59
2022/05/26 04:10:50;;;;;;;39.28;6.53;;;18.70;99.90;;;;;;4989475;28;20037;-59
2022/05/26 04:13:17;;;;;;;31.55;4.97;;;18.70;99.90;;;;;;5042100;28;20050;-59
2022/05/26 04:15:43;;;;;;;37.47;5.45;;;18.70;99.90;;;;;;5030269;28;20036;-59
2022/05/26 04:18:09;;;;;;;38.60;6.07;;;18.80;99.90;;;;;;5016354;28;1296698;-59
2022/05/26 04:20:35;;;;;;;39.30;6.20;;;18.80;99.90;;;;;;5056033;28;20044;-58
2022/05/26 04:23:01;;;;;;;27.73;6.25;;;18.80;99.90;;;;;;5082144;28;20505;-59
2022/05/26 04:25:27;;;;;;;29.55;5.63;;;18.80;99.90;;;;;;5065990;28;20493;-58
2022/05/26 04:27:53;;;;;;;40.30;7.07;;;18.90;99.90;;;;;;5084853;28;25249;-59
2022/05/26 04:30:21;;;;;;;33.85;5.75;;;18.90;99.90;;;;;;5079768;28;20540;-59
2022/05/26 04:32:47;;;;;;;23.45;5.55;;;19.00;99.90;;;;;;5007948;28;20044;-58
2022/05/26 04:35:13;;;;;;;30.98;6.38;;;19.00;99.90;;;;;;5068637;28;20094;-58
2022/05/26 04:37:40;;;;;;;28.00;6.40;;;19.00;99.90;;;;;;5073436;28;20033;-58
2022/05/26 04:40:08;;;;;;;28.70;6.50;;;19.10;99.90;;;;;;5073368;28;20032;-58
2022/05/26 04:42:34;;;;;;;33.90;6.88;;;19.20;99.90;;;;;;5073353;28;20039;-58
2022/05/26 04:45:01;;;;;;;26.00;5.32;;;19.20;99.90;;;;;;5073366;28;20083;-58
2022/05/26 04:47:27;;;;;;;23.08;6.10;;;19.20;99.90;;;;;;5073501;28;20024;-58
2022/05/26 04:49:53;;;;;;;25.48;8.10;;;19.30;99.90;;;;;;5077295;28;20048;-58
2022/05/26 04:52:21;;;;;;;21.48;6.28;;;19.30;99.90;;;;;;5077056;28;20334;-58
2022/05/26 04:54:48;;;;;;;12.95;4.85;;;19.40;99.90;;;;;;5077067;28;20016;-58
2022/05/26 04:57:18;;;;;;;16.52;4.82;;;19.40;99.90;;;;;;5076930;28;20039;-58
2022/05/26 04:59:44;;;;;;;18.98;6.50;;;19.40;99.90;;;;;;5076817;28;20498;-58
2022/05/26 05:02:12;;;;;;;13.13;5.30;;;19.40;99.90;;;;;;5077233;28;20021;-58
2022/05/26 05:04:44;;;;;;;10.30;4.53;;;19.50;99.90;;;;;;5076422;28;20024;-58
2022/05/26 05:07:11;;;;;;;16.80;6.25;;;19.60;99.90;;;;;;5076643;28;20032;-58
2022/05/26 05:09:40;;;;;;;8.23;3.80;;;19.70;99.90;;;;;;5076486;28;20033;-58
2022/05/26 05:12:08;;;;;;;8.93;4.22;;;19.70;99.90;;;;;;5076636;28;20024;-58
2022/05/26 05:14:40;;;;;;;9.05;3.72;;;19.80;99.90;;;;;;5080163;28;20455;-58
2022/05/26 05:17:06;;;;;;;12.18;3.88;;;19.80;99.90;;;;;;5082956;28;20672;-58
2022/05/26 05:19:32;;;;;;;8.82;4.10;;;19.90;99.90;;;;;;5091370;28;20079;-58
2022/05/26 05:22:06;;;;;;;16.02;4.22;;;20.00;99.90;;;;;;5093475;28;20028;-58
2022/05/26 05:24:47;;;;;;;6.45;3.22;;;20.20;99.90;;;;;;5082420;28;20556;-58
2022/05/26 05:27:44;;;;;;;12.40;4.57;;;20.30;99.90;;;;;;5094146;28;20020;-58
2022/05/26 05:30:22;;;;;;;16.23;4.40;;;20.30;99.90;;;;;;5080780;28;20050;-59
2022/05/26 05:32:52;;;;;;;15.07;4.38;;;20.50;99.90;;;;;;5085601;28;20029;-58
2022/05/26 05:35:24;;;;;;;16.50;3.73;;;20.60;99.90;;;;;;5093961;28;20161;-58
2022/05/26 05:37:56;;;;;;;17.15;4.43;;;20.70;99.90;;;;;;5086748;28;20028;-58
2022/05/26 05:40:22;;;;;;;6.28;2.75;;;20.80;99.90;;;;;;5082226;28;20439;-59
2022/05/26 05:42:48;;;;;;;7.88;2.40;;;20.90;99.90;;;;;;5094712;28;20036;-59
2022/05/26 05:45:15;;;;;;;11.20;2.45;;;20.90;99.90;;;;;;5095698;28;20028;-58
2022/05/26 05:47:41;;;;;;;6.63;2.20;;;21.00;99.90;;;;;;5095772;28;20482;-58
2022/05/26 05:50:07;;;;;;;13.45;4.13;;;21.20;99.90;;;;;;5096474;28;20031;-58
2022/05/26 05:52:33;;;;;;;8.57;2.65;;;21.10;99.90;;;;;;5095364;28;20107;-58
2022/05/26 05:55:00;;;;;;;7.80;2.58;;;21.40;99.90;;;;;;5096217;28;20637;-58
2022/05/26 05:57:26;;;;;;;5.18;1.75;;;21.60;99.90;;;;;;5095759;28;20028;-58
2022/05/26 05:59:52;;;;;;;13.15;2.88;;;21.70;99.90;;;;;;5095035;28;20145;-58
2022/05/26 06:02:18;;;;;;;7.13;2.45;;;21.80;98.50;;;;;;5096221;28;20060;-58
2022/05/26 06:04:44;;;;;;;20.33;3.58;;;21.70;98.20;;;;;;5095572;28;20131;-58
2022/05/26 06:07:15;;;;;;;7.28;2.45;;;21.90;99.90;;;;;;5095754;28;20035;-58
2022/05/26 06:09:42;;;;;;;2.80;2.03;;;22.00;99.90;;;;;;5095707;28;20062;-58
2022/05/26 06:12:09;;;;;;;4.47;1.98;;;22.00;99.90;;;;;;5095496;28;20024;-58
2022/05/26 06:14:35;;;;;;;15.40;3.05;;;22.00;99.90;;;;;;5094901;28;20577;-58
2022/05/26 06:17:01;;;;;;;13.60;5.80;;;21.80;99.70;;;;;;5095665;28;20028;-58
2022/05/26 06:19:27;;;;;;;14.15;5.53;;;22.00;99.90;;;;;;5095101;28;20028;-58
2022/05/26 06:21:53;;;;;;;14.63;6.45;;;22.20;99.90;;;;;;5095084;28;20026;-58
2022/05/26 06:24:23;;;;;;;9.98;4.80;;;22.30;99.90;;;;;;5095291;28;20032;-58
2022/05/26 06:26:49;;;;;;;7.07;2.43;;;22.40;99.90;;;;;;5095077;28;20136;-58
2022/05/26 06:37:29;;;;;;;2.83;2.15;;;22.90;92.60;;;;;;5115219;28;20051;-58
2022/05/26 06:39:56;;;;;;;8.02;3.25;;;23.00;92.10;;;;;;5115734;28;20059;-58
2022/05/26 06:42:24;;;;;;;13.30;3.17;;;22.90;91.20;;;;;;5114853;28;20023;-58
2022/05/26 06:44:55;;;;;;;16.20;4.78;;;22.90;90.30;;;;;;5096751;28;20023;-58
2022/05/26 06:47:22;;;;;;;17.40;7.72;;;23.10;93.50;;;;;;5115296;28;20455;-58
2022/05/26 06:49:49;;;;;;;16.77;6.93;;;23.30;91.40;;;;;;5115124;28;20028;-58
2022/05/26 06:52:17;;;;;;;14.30;7.00;;;23.50;92.00;;;;;;5096840;28;20039;-58
2022/05/26 06:54:45;;;;;;;20.15;8.55;;;23.70;87.80;;;;;;5094694;28;20362;-58
2022/05/26 06:57:13;;;;;;;21.15;10.05;;;23.80;87.10;;;;;;5094738;28;20059;-58
2022/05/26 06:59:39;;;;;;;20.05;8.55;;;24.00;88.50;;;;;;5094591;28;20024;-58
2022/05/26 07:02:08;;;;;;;23.58;9.93;;;24.10;80.60;;;;;;5094750;28;20086;-58
2022/05/26 07:04:34;;;;;;;22.80;10.15;;;24.00;83.20;;;;;;5094305;28;20107;-58
2022/05/26 07:07:01;;;;;;;36.65;14.85;;;24.20;82.30;;;;;;5095233;28;20027;-58
2022/05/26 07:09:27;;;;;;;32.38;14.43;;;24.60;74.20;;;;;;5096623;28;20067;-58
2022/05/26 07:11:53;;;;;;;35.78;16.40;;;24.50;75.00;;;;;;5094724;28;20027;-58
2022/05/26 07:14:20;;;;;;;46.72;21.35;;;24.60;68.50;;;;;;5095344;28;20028;-59
2022/05/26 07:16:47;;;;;;;35.15;18.08;;;24.70;71.60;;;;;;5094998;28;20082;-59
2022/05/26 07:19:14;;;;;;;44.05;20.75;;;24.90;71.90;;;;;;5095289;28;20506;-59
2022/05/26 07:21:43;;;;;;;43.78;18.40;;;24.90;68.30;;;;;;5095007;28;20024;-58
2022/05/26 07:24:10;;;;;;;41.60;16.42;;;24.40;71.60;;;;;;5094966;28;20028;-58
2022/05/26 07:26:36;;;;;;;37.95;15.00;;;24.60;72.60;;;;;;5095418;28;20077;-58
2022/05/26 07:29:03;;;;;;;32.33;12.27;;;25.10;77.20;;;;;;5112697;28;20031;-58
2022/05/26 07:31:29;;;;;;;39.15;15.93;;;25.20;68.60;;;;;;5115305;28;20133;-58
2022/05/26 07:34:00;;;;;;;39.25;17.30;;;24.60;67.00;;;;;;5115004;28;20055;-58
2022/05/26 07:42:02;;;;;;;62.35;25.52;;;26.00;62.40;;;;;;5115123;28;20534;-58
2022/05/26 07:44:29;;;;;;;73.82;33.13;;;26.40;60.90;;;;;;5114156;28;20023;-58
2022/05/26 07:46:57;;;;;;;62.55;31.27;;;26.50;58.20;;;;;;5114421;28;20020;-58
2022/05/26 07:49:23;;;;;;;58.25;26.45;;;26.70;60.20;;;;;;5114433;28;20472;-58
2022/05/26 07:51:49;;;;;;;55.30;26.45;;;26.70;55.90;;;;;;5114363;28;20743;-58
2022/05/26 07:54:15;;;;;;;58.53;28.85;;;26.70;55.70;;;;;;5114385;28;20035;-58
2022/05/26 07:56:41;;;;;;;66.78;29.17;;;26.60;55.80;;;;;;5114206;28;20533;-58
2022/05/26 07:59:09;;;;;;;67.82;28.98;;;26.70;53.70;;;;;;5114270;28;20023;-59
2022/05/26 08:01:35;;;;;;;58.63;27.10;;;26.70;56.30;;;;;;5114168;28;20110;-58
2022/05/26 08:04:02;;;;;;;57.85;28.92;;;26.60;56.60;;;;;;5114293;28;20035;-58
2022/05/26 08:06:28;;;;;;;50.42;26.30;;;26.70;52.70;;;;;;5114000;28;20032;-58
2022/05/26 08:08:54;;;;;;;58.25;27.60;;;26.90;51.50;;;;;;5114380;28;20012;-58
2022/05/26 08:11:20;;;;;;;53.80;25.08;;;26.80;52.50;;;;;;5114140;28;20491;-58
2022/05/26 08:13:45;;;;;;;46.25;21.98;;;27.10;52.50;;;;;;5113832;28;20101;-58
2022/05/26 08:16:11;;;;;;;49.58;23.35;;;27.10;52.40;;;;;;5114168;28;20039;-58
2022/05/26 08:18:37;;;;;;;41.40;21.05;;;27.00;51.70;;;;;;5114176;28;20024;-58
2022/05/26 08:21:07;;;;;;;41.45;17.65;;;26.70;53.40;;;;;;5105123;28;20031;-58
2022/05/26 08:23:33;;;;;;;30.53;16.90;;;26.40;54.60;;;;;;5097455;28;20103;-58
2022/05/26 08:25:59;;;;;;;47.33;20.63;;;26.50;52.20;;;;;;5097881;28;20035;-58
2022/05/26 08:28:25;;;;;;;79.65;26.92;;;26.30;52.90;;;;;;5109722;28;20077;-58
2022/05/26 08:30:51;;;;;;;54.13;22.65;;;25.60;53.00;;;;;;5118048;28;20044;-58
2022/05/26 08:33:17;;;;;;;64.93;26.25;;;26.20;59.20;;;;;;5118098;28;20035;-58
2022/05/26 08:35:43;;;;;;;44.25;22.15;;;26.60;55.20;;;;;;5117173;28;20400;-58
2022/05/26 08:38:09;;;;;;;63.25;29.15;;;26.60;51.90;;;;;;5117906;28;20063;-58
2022/05/26 08:40:47;;;;;;;50.22;23.55;;;27.20;52.70;;;;;;5117843;28;20043;-58
2022/05/26 08:43:21;;;;;;;46.42;21.40;;;27.20;49.90;;;;;;5117500;28;20469;-58
2022/05/26 08:45:49;;;;;;;25.08;13.07;;;27.40;52.90;;;;;;5117847;28;20016;-58
2022/05/26 08:48:32;;;;;;;27.17;12.38;;;27.70;50.40;;;;;;5117823;28;20028;-58
2022/05/26 08:50:58;;;;;;;28.38;10.52;;;28.40;51.50;;;;;;5117166;28;20028;-58
2022/05/26 08:53:39;;;;;;;24.75;8.38;;;28.70;49.10;;;;;;5117564;28;20019;-58
2022/05/26 08:56:09;;;;;;;82.68;16.25;;;27.80;50.00;;;;;;5117546;28;20063;-58
2022/05/26 08:58:42;;;;;;;14.85;6.93;;;28.00;48.10;;;;;;5117321;28;20035;-58
2022/05/26 09:01:11;;;;;;;19.27;9.32;;;27.70;47.10;;;;;;5117464;28;20118;-58
2022/05/26 09:03:37;;;;;;;20.05;9.45;;;28.60;49.00;;;;;;5117097;28;20027;-58
2022/05/26 09:06:09;;;;;;;24.77;11.25;;;29.10;48.90;;;;;;5117779;28;20095;-58
2022/05/26 09:14:34;;;;;;;18.75;9.73;;;27.10;48.30;;;;;;5117256;28;20028;-58
2022/05/26 09:17:04;;;;;;;14.80;8.73;;;27.90;47.30;;;;;;5116995;28;20455;-58
2022/05/26 09:19:46;;;;;;;14.18;8.55;;;28.80;47.00;;;;;;5116825;28;20469;-58
2022/05/26 09:22:39;;;;;;;25.63;10.18;;;28.90;45.60;;;;;;5098442;28;20536;-58
2022/05/26 09:25:11;;;;;;;18.40;7.65;;;28.80;47.40;;;;;;5096406;28;20052;-58
2022/05/26 09:27:38;;;;;;;19.20;8.63;;;27.80;47.20;;;;;;5102174;28;20377;-58
2022/05/26 09:30:21;;;;;;;15.50;7.72;;;27.50;47.40;;;;;;5116942;28;20243;-58
2022/05/26 09:32:47;;;;;;;17.30;8.75;;;27.40;47.20;;;;;;5117476;28;20028;-58
2022/05/26 09:35:25;;;;;;;17.77;9.75;;;28.30;45.00;;;;;;5115907;28;20056;-58
2022/05/26 09:37:57;;;;;;;16.58;8.05;;;28.90;44.60;;;;;;5116889;28;20110;-58
2022/05/26 09:40:26;;;;;;;16.77;7.40;;;29.00;43.90;;;;;;5117401;28;20035;-58
2022/05/26 09:43:03;;;;;;;17.50;5.78;;;29.20;43.50;;;;;;5117567;28;20031;-58
2022/05/26 09:45:51;;;;;;;114.75;12.32;;;28.90;42.70;;;;;;5116693;28;20499;-58
2022/05/26 09:48:31;;;;;;;11.55;4.63;;;28.10;45.10;;;;;;5116790;28;20390;-58
2022/05/26 09:51:10;;;;;;;7.93;3.40;;;28.30;46.10;;;;;;5117687;28;20024;-58
2022/05/26 09:53:40;;;;;;;12.57;3.22;;;28.20;44.40;;;;;;5117082;28;20059;-58
2022/05/26 09:56:08;;;;;;;16.10;4.80;;;28.00;46.10;;;;;;5117277;28;20046;-58
2022/05/26 09:58:39;;;;;;;21.27;6.18;;;29.20;45.60;;;;;;5116075;28;20032;-58
2022/05/26 10:01:12;;;;;;;5.85;2.83;;;29.70;43.90;;;;;;5116050;28;20038;-57
2022/05/26 10:03:42;;;;;;;13.85;4.43;;;30.10;41.80;;;;;;5115724;28;20073;-58
2022/05/26 10:06:30;;;;;;;13.95;4.53;;;30.60;43.90;;;;;;5097992;28;20489;-58
2022/05/26 10:09:08;;;;;;;9.13;3.63;;;30.80;41.50;;;;;;5096467;28;20023;-58
2022/05/26 10:11:52;;;;;;;4.68;1.58;;;30.50;40.70;;;;;;5111790;28;20020;-58
2022/05/26 10:14:42;;;;;;;3.78;1.70;;;29.50;44.40;;;;;;5102505;28;20024;-58
2022/05/26 10:17:16;;;;;;;6.35;1.95;;;29.40;43.90;;;;;;5096631;28;20091;-58
2022/05/26 10:19:45;;;;;;;8.27;2.40;;;29.60;43.40;;;;;;5098768;28;20127;-58
2022/05/26 10:22:49;;;;;;;17.02;3.25;;;29.60;42.00;;;;;;5096109;28;20085;-58
2022/05/26 10:25:42;;;;;;;6.22;1.48;;;28.90;41.00;;;;;;5095551;28;20149;-58
2022/05/26 10:28:32;;;;;;;5.35;1.40;;;29.40;43.80;;;;;;5106400;28;20106;-58
2022/05/26 10:31:24;;;;;;;16.77;2.47;;;30.00;41.10;;;;;;5116758;28;20027;-58
2022/05/26 10:34:04;;;;;;;13.18;2.42;;;30.10;40.40;;;;;;5105060;28;20484;-58
2022/05/26 10:36:48;;;;;;;7.43;1.45;;;30.60;42.40;;;;;;5116311;28;20875;-58
2022/05/26 10:39:37;;;;;;;3.95;1.40;;;30.80;41.70;;;;;;5117454;28;20036;-58
2022/05/26 10:42:24;;;;;;;5.50;2.05;;;31.20;44.00;;;;;;5115839;28;20084;-58
2022/05/26 10:45:17;;;;;;;27.80;5.07;;;31.90;40.10;;;;;;5115837;28;20043;-58
2022/05/26 10:48:00;;;;;;;11.57;1.90;;;32.40;39.00;;;;;;5115199;28;20043;-58
2022/05/26 10:50:36;;;;;;;2.60;1.15;;;31.20;37.90;;;;;;5114830;28;20031;-58
2022/05/26 10:53:32;;;;;;;2.33;0.90;;;31.30;39.00;;;;;;5114837;28;20027;-58
2022/05/26 10:56:29;;;;;;;2.88;1.10;;;32.00;39.50;;;;;;5116174;28;20354;-58
2022/05/26 10:59:16;;;;;;;2.03;1.27;;;31.60;36.70;;;;;;5116090;28;20449;-58
2022/05/26 11:02:08;;;;;;;17.23;1.63;;;31.30;37.20;;;;;;5115065;28;20028;-58
2022/05/26 11:04:57;;;;;;;9.05;2.33;;;31.60;38.90;;;;;;5090725;28;20451;-58
2022/05/26 11:07:29;;;;;;;3.72;1.70;;;32.20;37.70;;;;;;5114934;28;20085;-58
2022/05/26 11:10:14;;;;;;;4.20;1.30;;;32.10;36.70;;;;;;5099104;28;20028;-58
2022/05/26 11:13:01;;;;;;;6.03;1.80;;;31.80;37.40;;;;;;5107510;28;20040;-58
2022/05/26 11:18:48;;;;;;;16.13;2.15;;;32.50;39.10;;;;;;5100921;28;20028;-58
2022/05/26 11:21:18;;;;;;;7.20;1.97;;;32.90;38.70;;;;;;5084863;28;20056;-58
2022/05/26 11:23:44;;;;;;;10.95;2.50;;;33.00;38.90;;;;;;5088943;28;20032;-58
2022/05/26 11:26:33;;;;;;;5.28;1.52;;;32.00;36.40;;;;;;5096716;28;20024;-58
2022/05/26 11:29:17;;;;;;;4.40;1.55;;;31.70;39.60;;;;;;5082838;28;20024;-58
2022/05/26 11:37:40;;;;;;;8.18;2.25;;;30.90;39.50;;;;;;5073639;28;20053;-58
2022/05/26 11:40:12;;;;;;;14.05;2.22;;;30.40;41.40;;;;;;5074060;28;20099;-58
2022/05/26 11:42:47;;;;;;;10.10;2.55;;;31.10;43.10;;;;;;5073655;28;20063;-58
2022/05/26 11:45:13;;;;;;;5.55;2.20;;;31.50;40.00;;;;;;5073602;28;20021;-58
2022/05/26 11:48:02;;;;;;;9.57;3.17;;;31.80;40.20;;;;;;5089202;28;20025;-57
2022/05/26 11:50:47;;;;;;;4.80;2.33;;;31.80;37.80;;;;;;5061423;28;20021;-58
2022/05/26 11:53:36;;;;;;;2.90;1.77;;;31.80;39.70;;;;;;5086973;28;20052;-58
2022/05/26 11:56:28;;;;;;;3.78;1.80;;;31.80;38.60;;;;;;5078370;28;20039;-58
2022/05/26 11:59:17;;;;;;;10.55;2.88;;;31.70;37.70;;;;;;5093622;28;20043;-58
2022/05/26 12:01:46;;;;;;;11.50;3.70;;;31.30;40.00;;;;;;5093428;28;20459;-58
2022/05/26 12:04:12;;;;;;;14.83;3.13;;;31.10;39.50;;;;;;5093759;28;20038;-58
2022/05/26 12:06:38;;;;;;;7.03;3.17;;;30.90;41.50;;;;;;5090627;28;20331;-58
2022/05/26 12:09:30;;;;;;;8.20;3.08;;;31.60;42.90;;;;;;5098035;28;20346;-58
2022/05/26 12:12:07;;;;;;;12.32;4.45;;;32.00;42.30;;;;;;5096250;28;20470;-58
2022/05/26 12:14:54;;;;;;;9.82;2.90;;;31.50;40.40;;;;;;5086011;28;20425;-59
2022/05/26 12:17:34;;;;;;;13.70;3.25;;;31.50;41.20;;;;;;5106830;28;20393;-58
2022/05/26 12:20:27;;;;;;;15.00;3.40;;;31.80;41.60;;;;;;5093711;28;20539;-58
2022/05/26 12:22:53;;;;;;;16.40;4.70;;;32.20;40.70;;;;;;5079381;28;20034;-58
2022/05/26 12:25:27;;;;;;;12.55;3.58;;;30.70;40.80;;;;;;5077149;28;20355;-58
2022/05/26 12:28:01;;;;;;;9.15;2.97;;;31.40;43.00;;;;;;5085793;28;20051;-58
2022/05/26 12:30:33;;;;;;;9.68;3.38;;;31.80;40.30;;;;;;5086072;28;20017;-58
2022/05/26 12:33:16;;;;;;;5.93;2.67;;;32.60;42.90;;;;;;5085217;28;20028;-58
2022/05/26 12:36:03;;;;;;;10.23;3.83;;;33.10;38.60;;;;;;5077355;28;20469;-58
2022/05/26 12:38:38;;;;;;;10.40;4.10;;;33.30;38.70;;;;;;5096711;28;20461;-58
2022/05/26 12:41:43;;;;;;;15.68;3.38;;;32.20;37.90;;;;;;5085421;28;20023;-58
2022/05/26 12:44:39;;;;;;;5.13;2.13;;;31.40;38.60;;;;;;5041970;28;20048;-58
2022/05/26 12:47:28;;;;;;;5.05;2.35;;;32.10;41.50;;;;;;5092733;28;20058;-58
2022/05/26 12:50:17;;;;;;;11.85;3.30;;;32.50;38.10;;;;;;5036467;28;20044;-58
2022/05/26 12:52:57;;;;;;;6.15;2.47;;;32.50;38.90;;;;;;5085980;28;20079;-58
2022/05/26 12:55:45;;;;;;;9.73;2.88;;;32.70;38.30;;;;;;5103652;28;20036;-58
2022/05/26 12:58:35;;;;;;;6.00;2.13;;;32.70;38.40;;;;;;5083873;28;20035;-57
2022/05/26 13:01:04;;;;;;;5.67;1.60;;;33.00;37.70;;;;;;5080788;28;20123;-57
2022/05/26 13:03:36;;;;;;;16.65;3.05;;;32.40;36.70;;;;;;5082609;28;20028;-57
2022/05/26 13:06:08;;;;;;;4.57;1.73;;;32.30;38.90;;;;;;5082335;28;20087;-57
2022/05/26 13:08:47;;;;;;;666.92;68.13;;;32.40;40.20;;;;;;5099654;28;20032;-57
2022/05/26 13:11:25;;;;;;;10.45;1.80;;;32.30;39.50;;;;;;5095798;28;20504;-57
2022/05/26 13:13:57;;;;;;;11.90;1.75;;;31.50;40.50;;;;;;5089896;28;20024;-57
2022/05/26 13:16:36;;;;;;;9.90;3.08;;;31.80;42.00;;;;;;5093948;28;20032;-58
2022/05/26 13:19:21;;;;;;;9.27;2.72;;;31.40;40.40;;;;;;5098233;28;20028;-57
2022/05/26 13:21:54;;;;;;;4.68;1.70;;;30.90;40.00;;;;;;5102113;28;20027;-57
2022/05/26 13:24:27;;;;;;;6.03;1.70;;;31.30;43.00;;;;;;5101483;28;20084;-57
2022/05/26 13:27:09;;;;;;;3.45;1.75;;;31.60;42.00;;;;;;5115052;28;20030;-57
2022/05/26 13:29:40;;;;;;;6.57;2.25;;;31.50;41.30;;;;;;5076106;28;20025;-57
2022/05/26 13:34:57;;;;;;;11.88;2.05;;;31.10;42.80;;;;;;5064765;28;20434;-57
2022/05/26 13:37:31;;;;;;;13.50;3.15;;;30.60;40.40;;;;;;5055888;28;20029;-57
2022/05/26 13:40:13;;;;;;;11.60;2.53;;;30.00;43.20;;;;;;5056167;28;20021;-57
2022/05/26 13:42:43;;;;;;;13.43;3.10;;;30.00;43.50;;;;;;5055585;28;20076;-57
2022/05/26 13:45:18;;;;;;;8.73;3.60;;;30.00;42.90;;;;;;5056162;28;20032;-57
2022/05/26 13:47:44;;;;;;;20.00;2.95;;;30.20;43.00;;;;;;5055714;28;20064;-57
2022/05/26 13:50:12;;;;;;;2.90;1.50;;;30.10;43.70;;;;;;5056153;28;20530;-57